Time;durP1;ratioP1;P1;durP2;ratioP2;P2;SDS_P1;SDS_P2;PMS_P1;PMS_P2;Temp;Humidity;BMP_temperature;BMP_pressure;BME280_temperature;BME280_humidity;BME280_pressure;Samples;Min_cycle;Max_cycle;Signal;HPM_P1;HPM_P2
2022/11/11 00:02:08;;;;;;;9.20;5.40;;;8.90;99.90;;;;;;5018514;28;20449;-72
2022/11/11 00:04:52;;;;;;;13.83;5.93;;;8.90;99.90;;;;;;5025106;28;20520;-72
2022/11/11 00:07:36;;;;;;;13.47;6.20;;;8.90;99.90;;;;;;5025724;28;20895;-73
2022/11/11 00:10:20;;;;;;;10.90;6.33;;;8.90;99.90;;;;;;5020788;28;20474;-73
2022/11/11 00:13:05;;;;;;;10.70;5.73;;;9.00;99.90;;;;;;5019084;28;21006;-73
2022/11/11 00:15:49;;;;;;;9.97;6.03;;;8.90;99.90;;;;;;5030190;28;20529;-73
2022/11/11 00:27:38;;;;;;;12.07;6.40;;;9.00;99.90;;;;;;5027028;28;20454;-72
2022/11/11 00:30:25;;;;;;;10.17;6.03;;;9.00;99.90;;;;;;5022230;28;20470;-73
2022/11/11 00:33:10;;;;;;;14.03;5.90;;;9.00;99.90;;;;;;5010758;28;20456;-73
2022/11/11 00:35:55;;;;;;;14.80;6.40;;;9.00;99.90;;;;;;5047081;28;20496;-73
2022/11/11 00:38:46;;;;;;;11.23;5.67;;;9.00;99.90;;;;;;5033949;28;20490;-71
2022/11/11 00:41:31;;;;;;;13.07;6.20;;;9.00;99.90;;;;;;5024301;28;20454;-73
2022/11/11 00:44:15;;;;;;;10.50;6.20;;;9.00;99.90;;;;;;5023245;28;20462;-73
2022/11/11 00:53:28;;;;;;;9.13;5.70;;;9.00;99.90;;;;;;5020227;28;20539;-73
2022/11/11 00:56:13;;;;;;;11.57;5.50;;;8.90;99.90;;;;;;5038152;28;20458;-73
2022/11/11 00:58:57;;;;;;;10.47;5.70;;;9.00;99.90;;;;;;5029134;28;21090;-73
2022/11/11 01:01:41;;;;;;;10.40;5.63;;;9.00;99.90;;;;;;5044819;28;20982;-73
2022/11/11 01:04:25;;;;;;;8.03;4.50;;;9.00;99.90;;;;;;5035429;28;20533;-73
2022/11/11 01:07:09;;;;;;;10.73;6.00;;;9.00;99.90;;;;;;5048597;28;20454;-73
2022/11/11 01:09:53;;;;;;;8.90;6.30;;;8.90;99.90;;;;;;5053944;28;20493;-73
2022/11/11 01:12:37;;;;;;;10.77;5.60;;;8.90;99.90;;;;;;5026829;28;20458;-72
2022/11/11 01:15:21;;;;;;;9.70;6.13;;;8.90;99.90;;;;;;5023516;28;20449;-73
2022/11/11 01:18:06;;;;;;;10.53;5.83;;;8.90;99.90;;;;;;5009582;28;20465;-71
2022/11/11 01:21:02;;;;;;;9.50;5.53;;;8.90;99.90;;;;;;5033567;28;20494;-71
2022/11/11 01:23:48;;;;;;;10.03;5.47;;;8.80;99.90;;;;;;5026361;28;20486;-71
2022/11/11 01:26:32;;;;;;;8.83;4.93;;;8.80;99.90;;;;;;5025590;28;20538;-72
2022/11/11 01:29:17;;;;;;;12.40;5.53;;;8.90;99.90;;;;;;5031434;28;20518;-71
2022/11/11 01:32:01;;;;;;;8.87;5.50;;;8.90;99.90;;;;;;5025699;28;20465;-73
2022/11/11 01:34:45;;;;;;;9.20;5.43;;;8.90;99.90;;;;;;5033078;28;20474;-71
2022/11/11 01:37:32;;;;;;;9.60;6.00;;;8.90;99.90;;;;;;5034828;28;20525;-71
2022/11/11 01:40:17;;;;;;;10.93;6.43;;;8.80;99.90;;;;;;5019414;28;20470;-72
2022/11/11 01:43:03;;;;;;;12.30;5.70;;;8.90;99.90;;;;;;5029662;28;20469;-71
2022/11/11 01:45:58;;;;;;;11.63;6.33;;;8.90;99.90;;;;;;5022824;28;20547;-72
2022/11/11 01:52:18;;;;;;;11.20;5.90;;;8.90;99.90;;;;;;5037027;28;20561;-71
2022/11/11 01:55:17;;;;;;;10.03;5.80;;;8.90;99.90;;;;;;5038309;28;20466;-73
2022/11/11 01:58:15;;;;;;;8.80;5.37;;;8.90;99.90;;;;;;5036523;28;20470;-72
2022/11/11 02:01:00;;;;;;;10.10;6.00;;;8.90;99.90;;;;;;5042295;28;20520;-72
2022/11/11 02:05:41;;;;;;;12.40;5.57;;;8.90;99.90;;;;;;5030558;28;20469;-71
2022/11/11 02:06:54;;;;;;;12.03;5.83;;;8.90;99.90;;;;;;5026985;28;20489;-71
2022/11/11 02:09:44;;;;;;;12.10;6.40;;;8.90;99.90;;;;;;5026731;28;20517;-72
2022/11/11 02:15:31;;;;;;;10.20;5.97;;;8.90;99.90;;;;;;5020945;28;20561;-72
2022/11/11 02:18:15;;;;;;;11.27;6.60;;;8.90;99.90;;;;;;5032310;28;20561;-73
2022/11/11 02:21:00;;;;;;;13.30;5.80;;;8.90;99.90;;;;;;5035140;28;20482;-72
2022/11/11 02:24:07;;;;;;;11.57;6.50;;;8.90;99.90;;;;;;5030291;28;20457;-71
2022/11/11 02:26:53;;;;;;;10.03;5.70;;;8.90;99.90;;;;;;5038298;28;20466;-72
2022/11/11 02:29:38;;;;;;;9.63;5.90;;;8.90;99.90;;;;;;5029663;28;20469;-72
2022/11/11 02:32:22;;;;;;;12.60;6.60;;;8.90;99.90;;;;;;5010676;28;20478;-72
2022/11/11 02:35:18;;;;;;;10.10;5.70;;;8.90;99.90;;;;;;5036632;28;20458;-72
2022/11/11 02:38:07;;;;;;;11.37;6.30;;;8.90;99.90;;;;;;5025289;28;20510;-72
2022/11/11 02:43:54;;;;;;;9.70;5.97;;;8.90;99.90;;;;;;5029601;28;20453;-73
2022/11/11 02:46:38;;;;;;;13.30;7.20;;;8.70;99.90;;;;;;5039768;28;20462;-72
2022/11/11 02:49:22;;;;;;;10.97;6.03;;;8.70;99.90;;;;;;5024501;28;20631;-73
2022/11/11 02:52:06;;;;;;;9.53;5.37;;;8.80;99.90;;;;;;5035458;28;20877;-72
2022/11/11 02:54:51;;;;;;;10.63;6.30;;;8.80;99.90;;;;;;5026002;28;20542;-73
2022/11/11 02:57:35;;;;;;;8.73;4.73;;;8.80;99.90;;;;;;5026856;28;20532;-71
2022/11/11 03:00:19;;;;;;;12.20;6.63;;;8.90;99.90;;;;;;5023284;28;20462;-73
2022/11/11 03:03:03;;;;;;;12.20;6.40;;;8.90;99.90;;;;;;5038885;28;20466;-72
2022/11/11 03:05:47;;;;;;;12.00;6.63;;;8.80;99.90;;;;;;5033960;28;20469;-72
2022/11/11 03:08:31;;;;;;;10.97;5.30;;;8.80;99.90;;;;;;5030657;28;20554;-72
2022/11/11 03:11:26;;;;;;;11.30;6.50;;;8.70;99.90;;;;;;5015046;28;20562;-73
2022/11/11 03:14:10;;;;;;;10.90;5.80;;;8.80;99.90;;;;;;5022427;28;20489;-73
2022/11/11 03:21:03;;;;;;;9.50;5.47;;;8.70;99.90;;;;;;5023635;28;20486;-72
2022/11/11 03:23:04;;;;;;;9.20;5.07;;;8.80;99.90;;;;;;5022295;28;20518;-72
2022/11/11 03:25:49;;;;;;;10.87;5.20;;;8.80;99.90;;;;;;5022774;28;20470;-72
2022/11/11 03:28:33;;;;;;;11.30;5.83;;;8.90;99.90;;;;;;5025725;28;20478;-72
2022/11/11 03:31:17;;;;;;;10.40;4.73;;;8.80;99.90;;;;;;5038684;28;20477;-72
2022/11/11 03:34:19;;;;;;;6.97;4.23;;;8.80;99.90;;;;;;5032081;28;20485;-72
2022/11/11 03:40:09;;;;;;;8.10;4.80;;;8.80;99.90;;;;;;5023437;28;20480;-73
2022/11/11 03:42:53;;;;;;;7.87;5.07;;;8.80;99.90;;;;;;5043654;28;20461;-72
2022/11/11 03:45:38;;;;;;;11.80;6.20;;;8.70;99.90;;;;;;5044919;28;20458;-72
2022/11/11 03:48:23;;;;;;;15.33;5.57;;;8.80;99.90;;;;;;5027007;28;20461;-73
2022/11/11 03:51:07;;;;;;;9.60;5.23;;;8.80;99.90;;;;;;5015612;28;20482;-73
2022/11/11 03:53:51;;;;;;;8.40;4.37;;;8.80;99.90;;;;;;5025574;28;20458;-73
2022/11/11 03:56:36;;;;;;;8.40;4.33;;;8.80;99.90;;;;;;5024413;28;20968;-72
2022/11/11 03:59:20;;;;;;;9.07;4.87;;;8.80;99.90;;;;;;5010907;28;20532;-72
2022/11/11 04:11:25;;;;;;;5.47;3.57;;;8.80;99.90;;;;;;5027217;28;20493;-72
2022/11/11 04:17:15;;;;;;;9.37;4.30;;;8.80;99.90;;;;;;5004984;28;20523;-72
2022/11/11 04:23:02;;;;;;;8.27;4.30;;;8.80;99.90;;;;;;5019405;28;20505;-71
2022/11/11 04:25:49;;;;;;;9.33;4.53;;;8.80;99.90;;;;;;5036211;28;20457;-71
2022/11/11 04:32:34;;;;;;;8.43;4.13;;;8.80;99.90;;;;;;5023965;28;20528;-71
2022/11/11 04:34:42;;;;;;;6.10;3.80;;;8.80;99.90;;;;;;5036619;28;20566;-70
2022/11/11 04:37:30;;;;;;;6.70;3.60;;;8.70;99.90;;;;;;5027198;28;20979;-72
2022/11/11 04:43:18;;;;;;;6.77;3.87;;;8.70;99.90;;;;;;5018681;28;20494;-72
2022/11/11 04:46:02;;;;;;;9.37;4.90;;;8.70;99.90;;;;;;5037008;28;20819;-72
2022/11/11 04:48:46;;;;;;;8.10;4.20;;;8.70;99.90;;;;;;5040117;28;20462;-72
2022/11/11 04:52:25;;;;;;;12.00;4.50;;;8.70;99.90;;;;;;5020061;28;20486;-72
2022/11/11 04:56:46;;;;;;;9.90;5.07;;;8.70;99.90;;;;;;5018971;28;20464;-71
2022/11/11 04:57:45;;;;;;;7.57;4.70;;;8.70;99.90;;;;;;5033406;28;20464;-72
2022/11/11 05:00:29;;;;;;;6.97;4.87;;;8.70;99.90;;;;;;5031767;28;20547;-72
2022/11/11 05:03:15;;;;;;;10.00;5.23;;;8.70;99.90;;;;;;5035766;28;20486;-72
2022/11/11 05:09:03;;;;;;;9.50;5.23;;;8.60;99.90;;;;;;5026661;28;21045;-72
2022/11/11 05:11:47;;;;;;;8.50;4.83;;;8.60;99.90;;;;;;5025887;28;20544;-71
2022/11/11 05:26:44;;;;;;;7.83;4.10;;;8.60;99.90;;;;;;5026212;28;20541;-71
2022/11/11 05:29:28;;;;;;;8.17;4.77;;;8.60;99.90;;;;;;5024211;28;20462;-71
2022/11/11 05:32:19;;;;;;;5.23;3.50;;;8.60;99.90;;;;;;5037859;28;20504;-72
2022/11/11 05:35:03;;;;;;;7.30;4.20;;;8.60;99.90;;;;;;5025620;28;20454;-72
2022/11/11 05:38:18;;;;;;;6.60;3.77;;;8.60;99.90;;;;;;5028711;28;20576;-70
2022/11/11 05:40:54;;;;;;;7.57;4.47;;;8.60;99.90;;;;;;5026184;28;21005;-71
2022/11/11 05:43:38;;;;;;;6.23;4.00;;;8.60;99.90;;;;;;5033218;28;20465;-71
2022/11/11 05:46:22;;;;;;;9.07;4.20;;;8.60;99.90;;;;;;5027267;28;20520;-73
2022/11/11 05:49:16;;;;;;;9.20;3.97;;;8.50;99.90;;;;;;5039257;28;20462;-72
2022/11/11 05:52:00;;;;;;;7.47;3.83;;;8.50;99.90;;;;;;5028737;28;20560;-72
2022/11/11 05:54:45;;;;;;;8.50;4.20;;;8.50;99.90;;;;;;5025315;28;20543;-71
2022/11/11 05:57:29;;;;;;;10.20;5.43;;;8.50;99.90;;;;;;5023798;28;20490;-72
2022/11/11 06:00:14;;;;;;;9.57;5.07;;;8.60;99.90;;;;;;5024520;28;20566;-72
2022/11/11 06:03:05;;;;;;;9.80;4.60;;;8.60;99.90;;;;;;5028367;28;20462;-71
2022/11/11 06:05:49;;;;;;;8.50;5.20;;;8.60;99.90;;;;;;5040611;28;20477;-71
2022/11/11 06:08:33;;;;;;;10.13;5.20;;;8.50;99.90;;;;;;5035650;28;20509;-71
2022/11/11 06:11:17;;;;;;;9.20;4.40;;;8.50;99.90;;;;;;5022533;28;20470;-72
2022/11/11 06:14:02;;;;;;;7.47;3.73;;;8.50;99.90;;;;;;5024556;28;20509;-71
2022/11/11 06:16:46;;;;;;;8.77;4.37;;;8.50;99.90;;;;;;5022994;28;20482;-71
2022/11/11 06:19:30;;;;;;;10.23;4.97;;;8.50;99.90;;;;;;5025348;28;20465;-72
2022/11/11 06:22:54;;;;;;;9.60;4.57;;;8.50;99.90;;;;;;5028914;28;20487;-72
2022/11/11 06:28:21;;;;;;;11.47;4.63;;;8.60;99.90;;;;;;4977032;28;20478;-71
2022/11/11 06:31:07;;;;;;;9.47;4.90;;;8.60;99.90;;;;;;5008942;28;20995;-72
2022/11/11 06:33:52;;;;;;;7.07;3.93;;;8.60;99.90;;;;;;5007805;28;20499;-71
2022/11/11 06:36:36;;;;;;;5.50;4.00;;;8.60;99.90;;;;;;5015765;28;20891;-71
2022/11/11 06:39:20;;;;;;;6.50;3.83;;;8.60;99.90;;;;;;5024220;28;20491;-71
2022/11/11 06:42:04;;;;;;;8.20;3.83;;;8.60;99.90;;;;;;5011755;28;20469;-71
2022/11/11 06:44:48;;;;;;;6.97;4.07;;;8.50;99.90;;;;;;5009860;28;20458;-72
2022/11/11 06:47:32;;;;;;;5.57;3.27;;;8.50;99.90;;;;;;5035757;28;20527;-71
2022/11/11 06:50:17;;;;;;;4.33;3.07;;;8.50;99.90;;;;;;5022488;28;20505;-72
2022/11/11 06:53:09;;;;;;;6.33;3.77;;;8.50;99.90;;;;;;5036261;28;20516;-72
2022/11/11 06:55:53;;;;;;;5.30;3.50;;;8.50;99.90;;;;;;5023679;28;20457;-72
2022/11/11 06:58:38;;;;;;;5.23;3.13;;;8.40;99.90;;;;;;5034637;28;20623;-72
2022/11/11 07:01:22;;;;;;;6.73;2.70;;;8.40;99.90;;;;;;5018690;28;20592;-71
2022/11/11 07:04:07;;;;;;;5.40;2.73;;;8.40;99.90;;;;;;5037165;28;20446;-72
2022/11/11 07:06:51;;;;;;;4.00;2.57;;;8.50;99.90;;;;;;5032455;28;20462;-72
2022/11/11 07:09:35;;;;;;;3.77;2.47;;;8.50;99.90;;;;;;5026972;28;20981;-70
2022/11/11 07:12:19;;;;;;;3.87;2.53;;;8.50;99.90;;;;;;5028223;28;20470;-72
2022/11/11 07:15:03;;;;;;;3.70;2.40;;;8.50;99.90;;;;;;5029130;28;20512;-72
2022/11/11 07:17:48;;;;;;;3.70;2.40;;;8.50;99.90;;;;;;5042421;28;20574;-72
2022/11/11 07:20:32;;;;;;;4.40;2.70;;;8.50;99.90;;;;;;5028406;28;20486;-72
2022/11/11 07:23:16;;;;;;;4.60;2.90;;;8.50;99.90;;;;;;5033504;28;20467;-72
2022/11/11 07:26:01;;;;;;;4.80;2.97;;;8.40;99.90;;;;;;5038580;28;21038;-70
2022/11/11 07:28:45;;;;;;;3.40;2.43;;;8.40;99.90;;;;;;5048249;28;20476;-72
2022/11/11 07:31:29;;;;;;;6.57;3.30;;;8.40;99.90;;;;;;5022720;28;20479;-72
2022/11/11 07:34:13;;;;;;;2.90;1.70;;;8.40;99.90;;;;;;5031637;28;20462;-72
2022/11/11 07:36:57;;;;;;;3.30;2.03;;;8.40;99.90;;;;;;5027194;28;20489;-71
2022/11/11 07:39:41;;;;;;;4.40;2.57;;;8.40;99.90;;;;;;5029546;28;20474;-72
2022/11/11 07:42:26;;;;;;;3.07;2.03;;;8.40;99.90;;;;;;5030535;28;20511;-72
2022/11/11 07:45:11;;;;;;;2.60;2.40;;;8.40;99.90;;;;;;5045202;28;20987;-71
2022/11/11 07:47:55;;;;;;;3.07;2.60;;;8.40;99.90;;;;;;5042093;28;20505;-72
2022/11/11 07:50:39;;;;;;;6.17;3.13;;;8.40;99.90;;;;;;5028939;28;20886;-71
2022/11/11 07:53:25;;;;;;;3.13;2.00;;;8.40;99.90;;;;;;5023259;28;20474;-72
2022/11/11 07:56:09;;;;;;;3.27;2.17;;;8.40;99.90;;;;;;5043387;28;20592;-71
2022/11/11 07:58:54;;;;;;;4.70;2.47;;;8.40;99.90;;;;;;5034976;28;20527;-72
2022/11/11 08:01:38;;;;;;;3.00;2.20;;;8.40;99.90;;;;;;5038131;28;20516;-72
2022/11/11 08:04:22;;;;;;;3.07;2.10;;;8.30;99.90;;;;;;5018391;28;20512;-73
2022/11/11 08:07:06;;;;;;;2.33;2.13;;;8.40;99.90;;;;;;5030408;28;20565;-72
2022/11/11 08:09:50;;;;;;;2.30;1.73;;;8.40;99.90;;;;;;5026891;28;20554;-72
2022/11/11 08:15:37;;;;;;;3.80;2.03;;;8.40;99.90;;;;;;5026000;28;20450;-71
2022/11/11 08:18:21;;;;;;;3.77;1.90;;;8.40;99.90;;;;;;5031710;28;20517;-72
2022/11/11 08:21:06;;;;;;;1.70;1.60;;;8.40;99.90;;;;;;5052549;28;21010;-72
2022/11/11 08:23:51;;;;;;;2.33;1.67;;;8.40;99.90;;;;;;5038366;28;20512;-72
2022/11/11 08:26:35;;;;;;;2.20;1.97;;;8.40;99.90;;;;;;5043255;28;20451;-72
2022/11/11 08:29:19;;;;;;;3.20;1.80;;;8.40;99.90;;;;;;5028997;28;20480;-72
2022/11/11 08:32:04;;;;;;;3.03;2.30;;;8.50;99.90;;;;;;5008892;28;20530;-72
2022/11/11 08:34:48;;;;;;;3.13;2.17;;;8.50;99.90;;;;;;5031982;28;20541;-72
2022/11/11 08:37:32;;;;;;;3.90;2.50;;;8.50;99.90;;;;;;5031696;28;20546;-72
2022/11/11 08:40:17;;;;;;;4.27;2.37;;;8.50;99.90;;;;;;5022200;28;20466;-73
2022/11/11 08:43:01;;;;;;;3.73;2.30;;;8.50;99.90;;;;;;5036155;28;20608;-72
2022/11/11 08:45:45;;;;;;;2.80;1.70;;;8.50;99.90;;;;;;5033638;28;20827;-71
2022/11/11 08:48:31;;;;;;;3.20;2.13;;;8.50;99.90;;;;;;5041773;28;21110;-72
2022/11/11 08:51:15;;;;;;;2.97;2.17;;;8.60;99.90;;;;;;5035796;28;20473;-72
2022/11/11 08:53:59;;;;;;;4.57;2.90;;;8.60;99.90;;;;;;5037864;28;20529;-72
2022/11/11 08:56:44;;;;;;;2.40;1.80;;;8.60;99.90;;;;;;5028307;28;20453;-72
2022/11/11 08:59:28;;;;;;;4.23;2.40;;;8.60;99.90;;;;;;5029374;28;20461;-73
2022/11/11 09:02:13;;;;;;;3.03;2.37;;;8.60;99.90;;;;;;5028777;28;20465;-72
2022/11/11 09:04:57;;;;;;;2.80;2.50;;;8.60;99.90;;;;;;5024987;28;20991;-72
2022/11/11 09:07:41;;;;;;;4.33;2.73;;;8.60;99.90;;;;;;5017719;28;20463;-72
2022/11/11 09:10:25;;;;;;;5.30;2.20;;;8.70;99.90;;;;;;5028831;28;20520;-73
2022/11/11 09:13:10;;;;;;;2.40;2.03;;;8.60;99.90;;;;;;5034229;28;20979;-72
2022/11/11 09:15:55;;;;;;;2.57;2.00;;;8.70;99.90;;;;;;5024981;28;20474;-72
2022/11/11 09:18:39;;;;;;;2.03;1.70;;;8.70;99.90;;;;;;5030507;28;20460;-72
2022/11/11 09:21:24;;;;;;;4.30;2.60;;;8.70;99.90;;;;;;5023525;28;20538;-74
2022/11/11 09:24:08;;;;;;;4.03;3.13;;;8.70;99.90;;;;;;5020822;28;20884;-72
2022/11/11 09:26:53;;;;;;;3.80;2.87;;;8.70;99.90;;;;;;5025324;28;20454;-72
2022/11/11 09:29:37;;;;;;;5.00;2.63;;;8.70;99.90;;;;;;5024257;28;20486;-72
2022/11/11 09:32:21;;;;;;;4.93;3.03;;;8.70;99.90;;;;;;5024837;28;21014;-72
2022/11/11 09:35:05;;;;;;;5.10;3.50;;;8.70;99.90;;;;;;5024916;28;20525;-72
2022/11/11 09:37:58;;;;;;;4.83;3.23;;;8.70;99.90;;;;;;5024800;28;20466;-72
2022/11/11 09:40:57;;;;;;;4.80;3.67;;;8.70;99.90;;;;;;5023883;28;20546;-72
2022/11/11 09:43:42;;;;;;;6.00;3.10;;;8.70;99.90;;;;;;5023389;28;20494;-72
2022/11/11 09:46:42;;;;;;;5.53;3.90;;;8.70;99.90;;;;;;5021611;28;20486;-73
2022/11/11 09:49:54;;;;;;;5.50;3.67;;;8.70;99.90;;;;;;5018878;28;20884;-73
2022/11/11 09:52:59;;;;;;;6.60;3.93;;;8.80;99.90;;;;;;5020784;28;20461;-72
2022/11/11 09:55:53;;;;;;;5.50;4.20;;;8.80;99.90;;;;;;5038056;28;20505;-72
2022/11/11 09:58:56;;;;;;;7.70;4.80;;;8.90;99.90;;;;;;5036705;28;20485;-72
2022/11/11 10:01:55;;;;;;;6.20;4.43;;;8.80;99.90;;;;;;5021661;28;20450;-70
2022/11/11 10:04:52;;;;;;;7.43;4.10;;;8.90;99.90;;;;;;5038071;28;24964;-71
2022/11/11 10:07:44;;;;;;;9.00;5.57;;;8.90;99.90;;;;;;5006911;28;20977;-71
2022/11/11 10:10:45;;;;;;;5.80;4.17;;;9.00;99.90;;;;;;5023435;28;20526;-71
2022/11/11 10:13:31;;;;;;;8.33;5.07;;;9.00;99.90;;;;;;5021595;28;20458;-70
2022/11/11 10:16:31;;;;;;;7.00;5.40;;;9.00;99.90;;;;;;5021019;28;21063;-72
2022/11/11 10:19:44;;;;;;;6.20;4.53;;;9.00;99.90;;;;;;5025967;28;20855;-71
2022/11/11 10:22:37;;;;;;;6.07;4.00;;;9.00;99.90;;;;;;5027321;28;20541;-71
2022/11/11 10:25:24;;;;;;;6.73;5.03;;;9.00;99.90;;;;;;5048818;28;20461;-72
2022/11/11 10:28:19;;;;;;;7.07;4.93;;;9.00;99.90;;;;;;5028636;28;20586;-71
2022/11/11 10:31:15;;;;;;;10.83;7.50;;;9.00;99.90;;;;;;5053840;28;20505;-70
2022/11/11 10:34:04;;;;;;;8.87;6.47;;;9.10;99.90;;;;;;5024783;28;20482;-71
2022/11/11 10:36:53;;;;;;;7.43;5.27;;;9.10;99.90;;;;;;5031321;28;20466;-71
2022/11/11 10:39:59;;;;;;;7.13;4.63;;;9.10;99.90;;;;;;5023165;28;20467;-72
2022/11/11 10:42:44;;;;;;;9.23;5.60;;;9.10;99.90;;;;;;5021059;28;20574;-72
2022/11/11 10:45:39;;;;;;;6.93;4.30;;;9.20;99.90;;;;;;5021731;28;21023;-71
2022/11/11 10:48:49;;;;;;;8.83;5.30;;;9.20;99.90;;;;;;5020348;28;20482;-72
2022/11/11 10:51:41;;;;;;;6.43;4.50;;;9.20;99.90;;;;;;5035545;28;20568;-72
2022/11/11 10:54:30;;;;;;;8.33;4.87;;;9.20;99.90;;;;;;5021624;28;20535;-72
2022/11/11 10:57:24;;;;;;;6.90;4.70;;;9.20;99.90;;;;;;5025963;28;20509;-72
2022/11/11 11:00:11;;;;;;;8.83;5.90;;;9.30;99.90;;;;;;5022858;28;20467;-72
2022/11/11 11:03:40;;;;;;;7.97;5.30;;;9.30;99.90;;;;;;5024088;28;20535;-72
2022/11/11 11:06:28;;;;;;;6.53;5.27;;;9.30;99.90;;;;;;5018082;28;20508;-71
2022/11/11 11:09:12;;;;;;;10.10;6.47;;;9.40;99.90;;;;;;5021578;28;20462;-71
2022/11/11 11:12:09;;;;;;;12.00;7.70;;;9.40;99.90;;;;;;5031796;28;20474;-72
2022/11/11 11:15:00;;;;;;;12.10;8.10;;;9.40;99.90;;;;;;5020763;28;20505;-71
2022/11/11 11:18:00;;;;;;;9.83;7.00;;;9.40;99.90;;;;;;5020794;28;20458;-71
2022/11/11 11:20:56;;;;;;;8.97;6.93;;;9.40;99.90;;;;;;5020573;28;20995;-71
2022/11/11 11:23:42;;;;;;;12.10;7.10;;;9.40;99.90;;;;;;5026128;28;20830;-70
2022/11/11 11:26:45;;;;;;;8.37;6.33;;;9.40;99.90;;;;;;5020077;28;20458;-71
2022/11/11 11:29:33;;;;;;;8.47;5.87;;;9.50;99.90;;;;;;5021163;28;20485;-71
2022/11/11 11:32:26;;;;;;;9.60;6.60;;;9.50;99.90;;;;;;5024111;28;20561;-72
2022/11/11 11:35:48;;;;;;;9.40;5.10;;;9.50;99.90;;;;;;5024158;28;20999;-70
2022/11/11 11:38:41;;;;;;;5.63;4.40;;;9.50;99.90;;;;;;5033177;28;20470;-70
2022/11/11 11:41:43;;;;;;;7.03;5.30;;;9.50;99.90;;;;;;5019081;28;20505;-71
2022/11/11 11:44:30;;;;;;;8.07;5.20;;;9.60;99.90;;;;;;5021846;28;20465;-71
2022/11/11 11:47:45;;;;;;;8.77;5.70;;;9.60;99.90;;;;;;5032500;28;20466;-70
2022/11/11 11:50:50;;;;;;;9.33;5.77;;;9.60;99.90;;;;;;5051882;28;20924;-72
2022/11/11 11:53:38;;;;;;;7.37;5.40;;;9.60;99.90;;;;;;5025120;28;20554;-71
2022/11/11 11:56:38;;;;;;;10.17;5.63;;;9.60;99.90;;;;;;5024506;28;20492;-71
2022/11/11 11:59:34;;;;;;;10.43;8.40;;;9.70;99.90;;;;;;5036870;28;20449;-72
2022/11/11 12:02:56;;;;;;;11.50;7.47;;;9.70;99.90;;;;;;5028631;28;20449;-72
2022/11/11 12:06:02;;;;;;;8.87;6.43;;;9.70;99.90;;;;;;5022938;28;20505;-71
2022/11/11 12:08:52;;;;;;;11.17;6.47;;;9.70;99.90;;;;;;5024582;28;20513;-71
2022/11/11 12:12:24;;;;;;;7.53;5.00;;;9.70;99.90;;;;;;5020430;28;20537;-71
2022/11/11 12:15:28;;;;;;;7.50;5.93;;;9.70;99.90;;;;;;5020708;28;20540;-70
2022/11/11 12:18:47;;;;;;;12.63;6.87;;;9.70;99.90;;;;;;5027041;28;20521;-71
2022/11/11 12:21:54;;;;;;;7.90;6.40;;;9.80;99.90;;;;;;5052088;28;20467;-72
2022/11/11 12:25:10;;;;;;;14.20;10.80;;;9.80;99.90;;;;;;5035415;28;20597;-72
2022/11/11 12:27:58;;;;;;;18.80;12.50;;;9.80;99.90;;;;;;5021519;28;20517;-71
2022/11/11 12:30:51;;;;;;;22.60;12.37;;;9.80;99.90;;;;;;5028753;28;20840;-72
2022/11/11 12:33:54;;;;;;;16.70;8.73;;;9.80;99.90;;;;;;5028654;28;20478;-71
2022/11/11 12:37:17;;;;;;;6.80;5.70;;;9.80;99.90;;;;;;5034687;28;20521;-73
2022/11/11 12:40:18;;;;;;;13.20;7.00;;;9.80;99.90;;;;;;5031141;28;20486;-72
2022/11/11 12:43:14;;;;;;;10.60;7.53;;;9.90;99.90;;;;;;5051089;28;20465;-71
2022/11/11 12:46:28;;;;;;;12.40;7.80;;;9.80;99.90;;;;;;5048407;28;20482;-71
2022/11/11 12:49:24;;;;;;;12.87;8.80;;;9.90;99.90;;;;;;5018617;28;20987;-73
2022/11/11 12:52:45;;;;;;;11.07;7.50;;;9.90;99.90;;;;;;5023282;28;20544;-72
2022/11/11 12:55:39;;;;;;;10.80;7.87;;;9.90;99.90;;;;;;5021622;28;20533;-73
2022/11/11 12:58:48;;;;;;;16.07;10.27;;;9.90;99.90;;;;;;5015917;28;20987;-72
2022/11/11 13:02:17;;;;;;;14.27;9.90;;;9.90;99.90;;;;;;5024759;28;20516;-71
2022/11/11 13:05:09;;;;;;;15.83;10.37;;;9.90;99.90;;;;;;5040645;28;20853;-72
2022/11/11 13:08:15;;;;;;;16.47;9.50;;;9.90;99.90;;;;;;5005122;28;20468;-71
2022/11/11 13:11:13;;;;;;;13.50;8.07;;;9.90;99.90;;;;;;5024989;28;20555;-73
2022/11/11 13:14:11;;;;;;;13.37;8.63;;;9.90;99.90;;;;;;5020501;28;20509;-72
2022/11/11 13:17:00;;;;;;;25.23;12.37;;;10.00;99.90;;;;;;5028439;28;20484;-72
2022/11/11 13:19:49;;;;;;;23.87;13.10;;;9.90;99.90;;;;;;5029780;28;20466;-72
2022/11/11 13:22:33;;;;;;;23.40;14.27;;;10.00;99.90;;;;;;5013004;28;20520;-72
2022/11/11 13:25:27;;;;;;;19.00;11.77;;;10.00;99.90;;;;;;5026276;28;20458;-72
2022/11/11 13:28:23;;;;;;;15.27;9.80;;;10.00;99.90;;;;;;5039069;28;21011;-72
2022/11/11 13:31:15;;;;;;;12.03;8.60;;;10.00;99.90;;;;;;5025858;28;20533;-72
2022/11/11 13:34:08;;;;;;;14.70;9.10;;;10.00;99.90;;;;;;5040152;28;20462;-72
2022/11/11 13:36:54;;;;;;;15.97;9.23;;;10.00;99.90;;;;;;5023738;28;20490;-72
2022/11/11 13:39:47;;;;;;;14.60;8.87;;;10.00;99.90;;;;;;5032294;28;20854;-72
2022/11/11 13:42:45;;;;;;;17.83;9.10;;;10.00;99.90;;;;;;5025744;28;20479;-72
2022/11/11 13:45:34;;;;;;;13.73;8.17;;;10.00;99.90;;;;;;5031853;28;20863;-75
2022/11/11 13:48:45;;;;;;;14.50;9.60;;;10.00;99.90;;;;;;5023387;28;20566;-73
2022/11/11 13:51:37;;;;;;;16.37;10.30;;;10.10;99.90;;;;;;5008721;28;20526;-72
2022/11/11 13:54:35;;;;;;;16.97;11.90;;;10.10;99.90;;;;;;5031188;28;20497;-72
2022/11/11 13:57:30;;;;;;;16.03;12.20;;;10.10;99.90;;;;;;5018211;28;20520;-72
2022/11/11 14:00:17;;;;;;;17.70;11.83;;;10.10;99.90;;;;;;5025854;28;20546;-72
2022/11/11 14:03:17;;;;;;;17.37;10.77;;;10.10;99.90;;;;;;5035574;28;20458;-72
2022/11/11 14:06:13;;;;;;;17.60;10.53;;;10.10;99.90;;;;;;5038270;28;20474;-72
2022/11/11 14:08:57;;;;;;;15.63;10.20;;;10.10;99.90;;;;;;5037309;28;20521;-72
2022/11/11 14:11:41;;;;;;;21.73;12.63;;;10.10;99.90;;;;;;5023458;28;20529;-72
2022/11/11 14:14:31;;;;;;;13.10;8.30;;;10.10;99.90;;;;;;5023039;28;20456;-73
2022/11/11 14:17:17;;;;;;;14.03;8.50;;;10.10;99.90;;;;;;5026858;28;20475;-72
2022/11/11 14:20:36;;;;;;;12.33;7.50;;;10.10;99.90;;;;;;5032119;28;21113;-72
2022/11/11 14:23:42;;;;;;;11.33;8.20;;;10.10;99.90;;;;;;5024562;28;20490;-72
2022/11/11 14:26:27;;;;;;;10.47;6.87;;;10.10;99.90;;;;;;5023013;28;20999;-73
2022/11/11 14:29:19;;;;;;;12.63;7.80;;;10.10;99.90;;;;;;5022609;28;20470;-73
2022/11/11 14:32:18;;;;;;;8.97;6.27;;;10.10;99.90;;;;;;5040584;28;20475;-72
2022/11/11 14:35:12;;;;;;;14.97;7.67;;;10.10;99.90;;;;;;5032599;28;20469;-72
2022/11/11 14:38:06;;;;;;;12.63;8.00;;;10.10;99.90;;;;;;5043676;28;20953;-72
2022/11/11 14:40:50;;;;;;;12.33;8.37;;;10.10;99.90;;;;;;5040665;28;20550;-71
2022/11/11 14:43:37;;;;;;;13.80;9.17;;;10.10;99.90;;;;;;5041953;28;20453;-72
2022/11/11 14:46:21;;;;;;;12.20;7.57;;;10.10;99.90;;;;;;5027353;28;20543;-72
2022/11/11 14:49:07;;;;;;;14.10;7.97;;;10.10;99.90;;;;;;5031502;28;20493;-72
2022/11/11 14:52:00;;;;;;;10.73;7.23;;;10.10;99.90;;;;;;5027406;28;20555;-72
2022/11/11 14:55:24;;;;;;;11.97;8.53;;;10.10;99.90;;;;;;5022371;28;20455;-72
2022/11/11 14:58:17;;;;;;;12.83;7.50;;;10.10;99.90;;;;;;5053101;28;20517;-72
2022/11/11 15:01:17;;;;;;;13.03;8.10;;;10.00;99.90;;;;;;5028205;28;20492;-72
2022/11/11 15:04:03;;;;;;;13.00;6.90;;;10.00;99.90;;;;;;5037024;28;20458;-72
2022/11/11 15:06:59;;;;;;;12.07;7.30;;;10.00;99.90;;;;;;5038342;28;20473;-72
2022/11/11 15:10:13;;;;;;;10.57;6.90;;;10.00;99.90;;;;;;5021533;28;20521;-72
2022/11/11 15:13:18;;;;;;;10.40;6.10;;;10.00;99.90;;;;;;5026681;28;20462;-72
2022/11/11 15:16:20;;;;;;;10.57;6.63;;;10.00;99.90;;;;;;5050155;28;20493;-72
2022/11/11 15:19:26;;;;;;;9.90;6.70;;;10.00;99.90;;;;;;5025748;28;20581;-72
2022/11/11 15:22:37;;;;;;;13.20;8.03;;;10.00;99.90;;;;;;5040996;28;20492;-72
2022/11/11 15:25:25;;;;;;;9.73;6.50;;;10.00;99.90;;;;;;5045330;28;20513;-72
2022/11/11 15:28:33;;;;;;;10.10;7.20;;;10.00;99.90;;;;;;5033296;28;20521;-72
2022/11/11 15:31:47;;;;;;;12.17;6.77;;;9.90;99.90;;;;;;5042855;28;20889;-72
2022/11/11 15:34:46;;;;;;;13.53;7.50;;;9.90;99.90;;;;;;5030109;28;20691;-73
2022/11/11 15:37:30;;;;;;;13.87;7.63;;;10.00;99.90;;;;;;5031356;28;20461;-72
2022/11/11 15:40:20;;;;;;;11.30;7.03;;;10.00;99.90;;;;;;5032919;28;20866;-71
2022/11/11 15:43:04;;;;;;;11.83;7.53;;;10.00;99.90;;;;;;5037131;28;20485;-72
2022/11/11 15:45:54;;;;;;;12.00;7.90;;;10.00;99.90;;;;;;5034681;28;20498;-71
2022/11/11 15:48:42;;;;;;;12.90;7.80;;;10.00;99.90;;;;;;5030999;28;20509;-72
2022/11/11 15:51:32;;;;;;;11.90;8.27;;;10.00;99.90;;;;;;5051958;28;20466;-73
2022/11/11 15:54:21;;;;;;;10.03;6.80;;;9.90;99.90;;;;;;5025713;28;21034;-72
2022/11/11 15:57:22;;;;;;;10.00;6.50;;;9.90;99.90;;;;;;5044902;28;20466;-72
2022/11/11 16:00:30;;;;;;;11.90;7.50;;;9.90;99.90;;;;;;5032603;28;20530;-72
2022/11/11 16:03:21;;;;;;;11.87;7.30;;;9.90;99.90;;;;;;5041838;28;20543;-72
2022/11/11 16:06:09;;;;;;;16.77;9.47;;;9.90;99.90;;;;;;5032062;28;20472;-71
2022/11/11 16:08:55;;;;;;;10.67;7.83;;;9.90;99.90;;;;;;5029950;28;20497;-72